createdAt,value
2022-08-17T00:02:24.165Z,68.30
2022-08-17T00:04:55.360Z,68.50
2022-08-17T00:07:22.868Z,68.60
2022-08-17T00:09:49.699Z,68.60
2022-08-17T00:12:42.563Z,68.60
2022-08-17T00:15:10.527Z,68.60
2022-08-17T00:17:38.169Z,68.40
2022-08-17T00:20:05.816Z,68.20
2022-08-17T00:22:36.485Z,68.10
2022-08-17T00:25:07.448Z,68.00
2022-08-17T00:27:34.886Z,68.00
2022-08-17T00:30:01.889Z,68.00
2022-08-17T00:33:12.121Z,68.10
2022-08-17T00:35:18.410Z,68.20
2022-08-17T00:37:45.406Z,68.10
2022-08-17T00:40:14.419Z,68.10
2022-08-17T00:42:42.072Z,68.20
2022-08-17T00:45:11.686Z,68.30
2022-08-17T00:47:39.278Z,68.40
2022-08-17T00:50:09.192Z,68.50
2022-08-17T00:52:45.389Z,68.60
2022-08-17T00:55:12.257Z,68.70
2022-08-17T00:57:43.384Z,68.60
2022-08-17T01:00:15.604Z,68.70
2022-08-17T01:02:45.159Z,68.80
2022-08-17T01:05:25.558Z,68.90
2022-08-17T01:07:53.827Z,69.00
2022-08-17T01:10:58.730Z,69.00
2022-08-17T01:13:15.039Z,69.00
2022-08-17T01:15:48.687Z,69.10
2022-08-17T01:18:16.613Z,69.20
2022-08-17T01:20:58.582Z,69.20
2022-08-17T01:23:28.798Z,69.30
2022-08-17T01:25:58.213Z,69.20
2022-08-17T01:28:33.326Z,69.20
2022-08-17T01:31:15.309Z,69.30
2022-08-17T01:33:42.391Z,69.10
2022-08-17T01:36:09.791Z,69.30
2022-08-17T01:38:38.419Z,69.30
2022-08-17T01:41:12.297Z,69.60
2022-08-17T01:43:47.638Z,69.80
2022-08-17T01:46:20.078Z,69.80
2022-08-17T01:48:47.500Z,70.00
2022-08-17T01:51:15.991Z,70.20
2022-08-17T01:53:47.333Z,70.70
2022-08-17T01:56:18.152Z,71.10
2022-08-17T01:58:45.629Z,71.00
2022-08-17T02:01:19.590Z,71.50
2022-08-17T02:03:56.182Z,71.50
2022-08-17T02:06:30.294Z,71.60
2022-08-17T02:09:03.529Z,72.10
2022-08-17T02:11:33.980Z,72.80
2022-08-17T02:14:03.123Z,73.00
2022-08-17T02:16:37.631Z,73.10
2022-08-17T02:19:11.337Z,73.20
2022-08-17T02:21:39.910Z,73.10
2022-08-17T02:24:14.821Z,73.10
2022-08-17T02:26:41.994Z,73.30
2022-08-17T02:29:08.805Z,73.30
2022-08-17T02:31:35.645Z,73.10
2022-08-17T02:34:04.592Z,72.90
2022-08-17T02:36:34.006Z,73.10
2022-08-17T02:39:11.867Z,73.20
2022-08-17T02:41:39.621Z,73.50
2022-08-17T02:44:07.368Z,73.40
2022-08-17T02:46:34.522Z,73.50
2022-08-17T02:49:01.550Z,73.50
2022-08-17T02:51:28.618Z,73.60
2022-08-17T02:54:39.671Z,73.80
2022-08-17T02:56:43.100Z,74.10
2022-08-17T02:59:09.843Z,73.90
2022-08-17T03:01:36.817Z,74.00
2022-08-17T03:04:04.070Z,74.00
2022-08-17T03:06:31.759Z,74.20
2022-08-17T03:08:58.571Z,74.50
2022-08-17T03:11:25.491Z,74.10
2022-08-17T03:13:52.332Z,74.10
2022-08-17T03:16:19.086Z,74.20
2022-08-17T03:18:46.228Z,73.90
2022-08-17T03:21:13.168Z,73.60
2022-08-17T03:23:42.100Z,73.40
2022-08-17T03:26:15.340Z,73.60
2022-08-17T03:28:42.480Z,73.80
2022-08-17T03:31:09.359Z,73.70
2022-08-17T03:33:36.139Z,73.90
2022-08-17T03:36:03.197Z,74.00
2022-08-17T03:38:30.035Z,74.10
2022-08-17T03:41:06.989Z,74.30
2022-08-17T03:43:34.683Z,74.50
2022-08-17T03:46:27.673Z,74.70
2022-08-17T03:49:19.815Z,74.80
2022-08-17T03:52:05.077Z,74.80
2022-08-17T03:54:50.423Z,75.00
2022-08-17T03:57:17.263Z,75.00
2022-08-17T03:59:44.881Z,75.20
2022-08-17T04:02:18.193Z,75.40
2022-08-17T04:04:45.699Z,75.80
2022-08-17T04:07:12.795Z,75.70
2022-08-17T04:09:39.621Z,75.90
2022-08-17T04:12:06.579Z,75.90
2022-08-17T04:14:51.475Z,76.10
2022-08-17T04:17:25.298Z,76.10
2022-08-17T04:19:52.897Z,76.00
2022-08-17T04:22:30.558Z,76.00
2022-08-17T04:25:02.670Z,76.10
2022-08-17T04:27:29.546Z,76.20
2022-08-17T04:29:56.391Z,76.20
2022-08-17T04:32:59.195Z,76.20
2022-08-17T04:35:10.501Z,76.20
2022-08-17T04:37:38.005Z,76.00
2022-08-17T04:40:27.298Z,75.90
2022-08-17T04:43:10.085Z,75.90
2022-08-17T04:45:55.687Z,75.90
2022-08-17T04:48:45.167Z,75.90
2022-08-17T04:51:31.485Z,75.80
2022-08-17T04:54:01.848Z,75.80
2022-08-17T04:56:30.829Z,75.80
2022-08-17T04:59:02.565Z,75.70
2022-08-17T05:01:32.133Z,75.70
2022-08-17T05:04:21.389Z,75.60
2022-08-17T05:06:49.983Z,75.80
2022-08-17T05:09:17.734Z,75.70
2022-08-17T05:11:45.499Z,75.90
2022-08-17T05:14:12.676Z,76.00
2022-08-17T05:16:39.439Z,76.10
2022-08-17T05:19:06.345Z,76.20
2022-08-17T05:21:33.244Z,76.40
2022-08-17T05:24:00.245Z,76.40
2022-08-17T05:26:28.782Z,76.40
2022-08-17T05:28:59.771Z,76.30
2022-08-17T05:31:30.875Z,76.30
2022-08-17T05:33:58.596Z,76.10
2022-08-17T05:36:43.484Z,75.80
2022-08-17T05:39:15.850Z,75.70
2022-08-17T05:41:45.996Z,75.50
2022-08-17T05:44:12.890Z,75.50
2022-08-17T05:46:43.643Z,75.50
2022-08-17T05:49:12.615Z,75.50
2022-08-17T05:51:56.759Z,75.40
2022-08-17T05:54:32.352Z,75.30
2022-08-17T05:57:18.027Z,74.80
2022-08-17T06:00:16.933Z,74.80
2022-08-17T06:03:05.023Z,74.50
2022-08-17T06:06:13.095Z,74.20
2022-08-17T06:08:53.338Z,74.10
2022-08-17T06:11:46.060Z,74.00
2022-08-17T06:14:38.901Z,74.10
2022-08-17T06:17:13.560Z,74.30
2022-08-17T06:19:45.812Z,74.30
2022-08-17T06:22:16.740Z,74.40
2022-08-17T06:25:17.993Z,74.30
2022-08-17T06:27:54.089Z,74.10
2022-08-17T06:30:57.597Z,74.10
2022-08-17T06:33:25.846Z,73.20
2022-08-17T06:36:14.589Z,72.80
2022-08-17T06:39:01.468Z,72.60
2022-08-17T06:41:41.730Z,72.40
2022-08-17T06:44:43.651Z,72.50
2022-08-17T06:47:13.542Z,72.30
2022-08-17T06:49:55.415Z,70.80
2022-08-17T06:52:45.777Z,70.60
2022-08-17T06:55:33.198Z,70.10
2022-08-17T06:58:16.649Z,70.30
2022-08-17T07:00:47.181Z,70.20
2022-08-17T07:03:37.888Z,70.30
2022-08-17T07:06:13.865Z,70.30
2022-08-17T07:09:02.451Z,70.20
2022-08-17T07:11:37.841Z,70.00
2022-08-17T07:14:15.196Z,70.00
2022-08-17T07:16:51.314Z,70.30
2022-08-17T07:19:22.538Z,70.60
2022-08-17T07:21:57.329Z,70.40
2022-08-17T07:24:39.411Z,70.30
2022-08-17T07:27:13.319Z,70.10
2022-08-17T07:29:49.536Z,70.30
2022-08-17T07:32:20.590Z,70.10
2022-08-17T07:35:11.613Z,70.00
2022-08-17T07:37:40.854Z,69.90
2022-08-17T07:40:27.117Z,69.90
2022-08-17T07:43:26.061Z,69.50
2022-08-17T07:46:29.628Z,69.40
2022-08-17T07:49:16.888Z,69.40
2022-08-17T07:51:43.784Z,69.30
2022-08-17T07:54:17.226Z,69.00
2022-08-17T07:56:46.355Z,69.00
2022-08-17T07:59:23.046Z,68.80
2022-08-17T08:01:57.961Z,68.80
2022-08-17T08:07:20.485Z,68.80
2022-08-17T08:10:00.540Z,69.00
2022-08-17T08:12:45.775Z,69.00
2022-08-17T08:15:20.939Z,69.00
2022-08-17T08:17:53.065Z,69.10
2022-08-17T08:20:52.932Z,69.20
2022-08-17T08:23:46.370Z,69.20
2022-08-17T08:26:20.050Z,68.70
2022-08-17T08:29:01.815Z,68.60
2022-08-17T08:31:58.824Z,68.60
2022-08-17T08:35:03.402Z,68.50
2022-08-17T08:37:52.763Z,68.70
2022-08-17T08:40:31.666Z,68.80
2022-08-17T08:43:37.806Z,68.70
2022-08-17T08:46:04.521Z,68.40
2022-08-17T08:49:10.362Z,68.40
2022-08-17T08:51:51.755Z,68.50
2022-08-17T08:54:28.259Z,68.50
2022-08-17T09:00:10.316Z,68.40
2022-08-17T09:03:51.754Z,68.40
2022-08-17T09:06:40.141Z,68.50
2022-08-17T09:09:48.241Z,68.20
2022-08-17T09:12:35.124Z,68.20
2022-08-17T09:15:12.939Z,68.30
2022-08-17T09:18:59.005Z,68.40
2022-08-17T09:20:58.599Z,68.30
2022-08-17T09:23:44.700Z,68.90
2022-08-17T09:26:24.144Z,68.60
2022-08-17T09:28:59.026Z,66.60
2022-08-17T09:31:35.450Z,64.90
2022-08-17T09:34:31.899Z,63.70
2022-08-17T09:37:14.961Z,62.90
2022-08-17T09:40:03.857Z,62.50
2022-08-17T09:42:37.826Z,62.70
2022-08-17T09:45:24.083Z,62.40
2022-08-17T09:48:05.959Z,62.30
2022-08-17T09:50:55.574Z,62.20
2022-08-17T09:53:35.590Z,61.40
2022-08-17T09:56:17.629Z,61.40
2022-08-17T09:58:50.492Z,59.50
2022-08-17T10:01:31.336Z,59.10
2022-08-17T10:04:23.817Z,58.50
2022-08-17T10:07:25.762Z,58.90
2022-08-17T10:10:15.227Z,58.70
2022-08-17T10:12:53.201Z,58.60
2022-08-17T10:15:53.488Z,58.40
2022-08-17T10:18:58.100Z,58.80
2022-08-17T10:21:44.603Z,59.20
2022-08-17T10:25:13.487Z,59.40
2022-08-17T10:27:51.893Z,59.80
2022-08-17T10:30:23.024Z,59.90
2022-08-17T10:32:57.522Z,60.00
2022-08-17T10:35:34.035Z,60.10
2022-08-17T10:38:45.982Z,60.00
2022-08-17T10:41:41.158Z,60.10
2022-08-17T10:44:38.860Z,60.00
2022-08-17T10:47:15.358Z,59.80
2022-08-17T10:49:53.559Z,59.30
2022-08-17T10:52:20.390Z,59.00
2022-08-17T10:55:05.931Z,59.10
2022-08-17T10:57:42.105Z,58.40
2022-08-17T11:00:18.982Z,58.20
2022-08-17T11:02:50.291Z,58.00
2022-08-17T11:05:28.622Z,58.20
2022-08-17T11:08:05.443Z,58.00
2022-08-17T11:10:46.477Z,57.30
2022-08-17T11:13:17.587Z,57.20
2022-08-17T11:16:08.139Z,56.90
2022-08-17T11:18:57.086Z,56.40
2022-08-17T11:21:50.344Z,56.70
2022-08-17T11:24:33.101Z,56.80
2022-08-17T11:27:33.058Z,57.10
2022-08-17T11:30:02.433Z,56.80
2022-08-17T11:32:47.356Z,57.40
2022-08-17T11:35:20.738Z,58.20
2022-08-17T11:38:16.835Z,58.40
2022-08-17T11:40:59.466Z,58.50
2022-08-17T11:43:55.506Z,59.10
2022-08-17T11:47:20.250Z,59.30
2022-08-17T11:50:05.787Z,60.40
2022-08-17T11:52:46.881Z,61.30
2022-08-17T11:55:37.528Z,62.60
2022-08-17T11:58:06.529Z,63.60
2022-08-17T12:00:45.528Z,63.90
2022-08-17T12:03:31.734Z,64.30
2022-08-17T12:06:20.282Z,64.60
2022-08-17T12:09:10.347Z,65.00
2022-08-17T12:11:58.767Z,65.70
2022-08-17T12:15:08.478Z,65.80
2022-08-17T12:17:40.389Z,66.80
2022-08-17T12:20:24.117Z,67.00
2022-08-17T12:23:03.683Z,67.40
2022-08-17T12:25:44.063Z,67.90
2022-08-17T12:28:28.626Z,68.30
2022-08-17T12:31:01.523Z,68.60
2022-08-17T12:33:29.045Z,69.00
2022-08-17T12:36:04.944Z,69.60
2022-08-17T12:38:35.963Z,69.50
2022-08-17T12:41:25.126Z,69.30
2022-08-17T12:44:03.223Z,68.80
2022-08-17T12:46:34.727Z,69.40
2022-08-17T12:49:14.925Z,69.00
2022-08-17T12:51:48.904Z,69.10
2022-08-17T12:54:35.852Z,69.00
2022-08-17T12:57:12.533Z,69.20
2022-08-17T12:59:50.290Z,69.40
2022-08-17T13:02:30.104Z,69.30
2022-08-17T13:05:00.705Z,69.70
2022-08-17T13:07:35.067Z,69.90
2022-08-17T13:10:02.489Z,70.00
2022-08-17T13:12:35.347Z,69.80
2022-08-17T13:15:02.733Z,69.80
2022-08-17T13:17:34.708Z,69.70
2022-08-17T13:20:04.850Z,69.50
2022-08-17T13:22:32.479Z,69.30
2022-08-17T13:25:07.370Z,69.40
2022-08-17T13:27:34.354Z,69.30
2022-08-17T13:30:07.313Z,69.40
2022-08-17T13:32:39.916Z,69.40
2022-08-17T13:35:41.048Z,69.50
2022-08-17T13:38:10.455Z,69.70
2022-08-17T13:40:41.572Z,70.20
2022-08-17T13:43:09.796Z,70.30
2022-08-17T13:45:50.686Z,70.00
2022-08-17T13:48:29.322Z,69.80
2022-08-17T13:50:59.601Z,69.70
2022-08-17T13:53:30.078Z,69.90
2022-08-17T13:56:31.793Z,70.20
2022-08-17T13:59:22.981Z,70.50
2022-08-17T14:02:10.555Z,70.20
2022-08-17T14:04:40.176Z,70.10
2022-08-17T14:07:12.959Z,69.80
2022-08-17T14:09:54.161Z,69.60
2022-08-17T14:12:24.945Z,69.50
2022-08-17T14:14:53.044Z,69.60
2022-08-17T14:17:20.060Z,69.90
2022-08-17T14:19:46.801Z,70.20
2022-08-17T14:22:23.958Z,70.30
2022-08-17T14:24:54.204Z,70.30
2022-08-17T14:27:21.691Z,70.40
2022-08-17T14:29:48.957Z,70.40
2022-08-17T14:32:45.825Z,70.40
2022-08-17T14:35:14.565Z,70.20
2022-08-17T14:37:42.156Z,70.20
2022-08-17T14:40:12.780Z,70.20
2022-08-17T14:42:41.832Z,70.10
2022-08-17T14:45:30.100Z,69.70
2022-08-17T14:47:58.768Z,69.20
2022-08-17T14:50:25.714Z,69.20
2022-08-17T14:52:54.013Z,68.90
2022-08-17T14:55:22.526Z,69.10
2022-08-17T14:57:49.553Z,69.20
2022-08-17T15:00:17.403Z,70.80
2022-08-17T15:02:48.635Z,70.10
2022-08-17T15:05:16.704Z,68.70
2022-08-17T15:07:44.554Z,67.60
2022-08-17T15:10:13.550Z,66.70
2022-08-17T15:12:41.750Z,66.30
2022-08-17T15:15:11.441Z,66.60
2022-08-17T15:17:44.353Z,66.80
2022-08-17T15:20:18.594Z,66.80
2022-08-17T15:22:46.841Z,66.70
2022-08-17T15:25:14.319Z,66.70
2022-08-17T15:27:41.613Z,66.60
2022-08-17T15:30:09.945Z,66.40
2022-08-17T15:32:39.645Z,66.10
2022-08-17T15:35:09.168Z,66.50
2022-08-17T15:37:36.285Z,66.50
2022-08-17T15:40:05.401Z,66.00
2022-08-17T15:42:32.928Z,65.50
2022-08-17T15:45:06.072Z,65.40
2022-08-17T15:47:32.830Z,65.50
2022-08-17T15:50:00.262Z,65.70
2022-08-17T15:52:30.003Z,65.30
2022-08-17T15:55:00.740Z,65.30
2022-08-17T15:57:28.237Z,65.70
2022-08-17T15:59:58.755Z,65.80
2022-08-17T16:03:45.923Z,65.40
2022-08-17T16:05:24.232Z,65.70
2022-08-17T16:07:52.524Z,65.40
2022-08-17T16:10:21.007Z,65.30
2022-08-17T16:12:49.448Z,65.40
2022-08-17T16:15:17.550Z,65.40
2022-08-17T16:17:44.356Z,65.30
2022-08-17T16:20:20.597Z,65.70
2022-08-17T16:22:49.584Z,66.10
2022-08-17T16:25:23.493Z,66.20
2022-08-17T16:28:10.601Z,66.20
2022-08-17T16:30:38.251Z,66.20
2022-08-17T16:33:05.831Z,66.10
2022-08-17T16:35:33.234Z,65.90
2022-08-17T16:38:00.274Z,65.80
2022-08-17T16:40:31.261Z,65.80
2022-08-17T16:43:04.283Z,66.00
2022-08-17T16:45:40.078Z,66.00
2022-08-17T16:48:08.235Z,66.00
2022-08-17T16:50:35.502Z,65.80
2022-08-17T16:53:08.186Z,65.80
2022-08-17T16:55:35.716Z,66.00
2022-08-17T16:58:06.678Z,66.10
2022-08-17T17:00:34.004Z,66.30
2022-08-17T17:03:20.388Z,66.20
2022-08-17T17:05:57.820Z,66.30
2022-08-17T17:09:02.187Z,66.50
2022-08-17T17:11:45.497Z,66.30
2022-08-17T17:14:21.037Z,66.40
2022-08-17T17:17:11.815Z,66.80
2022-08-17T17:19:41.269Z,67.00
2022-08-17T17:22:18.812Z,67.00
2022-08-17T17:25:04.412Z,67.40
2022-08-17T17:27:47.388Z,67.60
2022-08-17T17:30:46.034Z,67.50
2022-08-17T17:33:24.663Z,67.70
2022-08-17T17:35:56.799Z,67.80
2022-08-17T17:38:33.818Z,67.90
2022-08-17T17:41:05.494Z,68.20
2022-08-17T17:43:39.716Z,68.10
2022-08-17T17:46:28.278Z,68.10
2022-08-17T17:48:59.889Z,67.90
2022-08-17T17:52:06.484Z,67.60
2022-08-17T17:54:52.171Z,68.00
2022-08-17T17:57:49.411Z,68.40
2022-08-17T18:00:24.267Z,68.20
2022-08-17T18:03:12.739Z,68.10
2022-08-17T18:05:48.827Z,68.30
2022-08-17T18:08:41.394Z,68.00
2022-08-17T18:11:27.127Z,67.80
2022-08-17T18:14:14.295Z,67.90
2022-08-17T18:16:42.745Z,67.80
2022-08-17T18:19:14.612Z,67.80
2022-08-17T18:21:45.894Z,67.70
2022-08-17T18:24:14.079Z,67.70
2022-08-17T18:26:52.856Z,67.80
2022-08-17T18:29:27.661Z,68.20
2022-08-17T18:32:16.360Z,68.70
2022-08-17T18:34:47.799Z,69.30
2022-08-17T18:37:56.017Z,69.40
2022-08-17T18:40:30.679Z,69.90
2022-08-17T18:43:27.635Z,70.00
2022-08-17T18:46:28.151Z,69.90
2022-08-17T18:49:02.184Z,70.00
2022-08-17T18:51:41.834Z,70.30
2022-08-17T18:54:22.365Z,70.50
2022-08-17T18:56:51.375Z,70.70
2022-08-17T18:59:42.770Z,70.90
2022-08-17T19:02:20.579Z,71.30
2022-08-17T19:05:01.204Z,71.60
2022-08-17T19:07:41.452Z,71.80
2022-08-17T19:10:14.671Z,72.20
2022-08-17T19:13:12.426Z,72.30
2022-08-17T19:16:11.908Z,72.30
2022-08-17T19:18:50.861Z,72.20
2022-08-17T19:21:17.812Z,71.60
2022-08-17T19:23:53.359Z,71.20
2022-08-17T19:26:53.977Z,70.90
2022-08-17T19:29:44.375Z,70.70
2022-08-17T19:32:15.711Z,70.60
2022-08-17T19:34:44.399Z,70.50
2022-08-17T19:37:17.014Z,70.80
2022-08-17T19:39:55.781Z,70.90
2022-08-17T19:42:39.262Z,71.30
2022-08-17T19:45:35.256Z,71.50
2022-08-17T19:48:20.616Z,71.50
2022-08-17T19:51:06.282Z,71.80
2022-08-17T19:54:01.739Z,72.20
2022-08-17T19:57:01.788Z,72.20
2022-08-17T20:00:01.806Z,72.60
2022-08-17T20:02:37.018Z,72.90
2022-08-17T20:05:15.167Z,73.00
2022-08-17T20:08:11.046Z,73.20
2022-08-17T20:10:48.124Z,73.40
2022-08-17T20:13:45.273Z,73.40
2022-08-17T20:16:12.347Z,73.40
2022-08-17T20:19:04.166Z,73.40
2022-08-17T20:21:58.875Z,73.40
2022-08-17T20:24:53.665Z,73.40
2022-08-17T20:27:28.012Z,73.50
2022-08-17T20:30:04.743Z,73.50
2022-08-17T20:32:52.049Z,73.60
2022-08-17T20:35:39.379Z,73.80
2022-08-17T20:38:12.968Z,74.00
2022-08-17T20:40:55.272Z,74.10
2022-08-17T20:43:35.482Z,74.20
2022-08-17T20:46:40.359Z,74.30
2022-08-17T20:49:41.293Z,74.50
2022-08-17T20:52:13.419Z,74.60
2022-08-17T20:54:47.947Z,74.80
2022-08-17T20:57:38.023Z,75.10
2022-08-17T21:00:17.241Z,75.20
2022-08-17T21:02:50.336Z,75.40
2022-08-17T21:05:34.839Z,75.60
2022-08-17T21:08:15.067Z,75.70
2022-08-17T21:10:45.545Z,75.90
2022-08-17T21:13:13.908Z,75.70
2022-08-17T21:15:43.839Z,76.00
2022-08-17T21:18:32.326Z,75.90
2022-08-17T21:21:20.759Z,76.10
2022-08-17T21:24:08.478Z,76.30
2022-08-17T21:26:51.352Z,76.30
2022-08-17T21:29:31.488Z,76.20
2022-08-17T21:31:59.445Z,76.00
2022-08-17T21:34:39.226Z,75.90
2022-08-17T21:37:26.270Z,75.80
2022-08-17T21:40:09.899Z,75.80
2022-08-17T21:42:44.299Z,75.70
2022-08-17T21:45:24.492Z,75.70
2022-08-17T21:48:14.599Z,75.90
2022-08-17T21:50:44.739Z,76.00
2022-08-17T21:53:28.080Z,75.80
2022-08-17T21:55:57.648Z,75.80
2022-08-17T21:58:31.186Z,75.70
2022-08-17T22:01:20.613Z,75.60
2022-08-17T22:03:56.457Z,75.60
2022-08-17T22:06:35.261Z,75.50
2022-08-17T22:09:07.773Z,75.40
2022-08-17T22:12:06.784Z,75.30
2022-08-17T22:14:52.606Z,75.40
2022-08-17T22:17:29.447Z,75.40
2022-08-17T22:20:01.394Z,75.50
2022-08-17T22:23:04.278Z,75.60
2022-08-17T22:25:34.142Z,75.80
2022-08-17T22:28:04.231Z,75.90
2022-08-17T22:30:38.569Z,76.10
2022-08-17T22:33:31.367Z,76.20
2022-08-17T22:36:29.050Z,76.40
2022-08-17T22:39:22.533Z,76.40
2022-08-17T22:42:00.128Z,76.60
2022-08-17T22:44:36.343Z,77.00
2022-08-17T22:47:15.063Z,77.10
2022-08-17T22:49:54.132Z,77.10
2022-08-17T22:52:33.206Z,77.10
2022-08-17T22:55:26.804Z,77.10
2022-08-17T22:58:12.100Z,77.20
2022-08-17T23:00:42.116Z,77.20
2022-08-17T23:03:19.831Z,77.30
2022-08-17T23:06:06.906Z,77.30
2022-08-17T23:08:37.552Z,77.30
2022-08-17T23:11:06.602Z,77.30
2022-08-17T23:13:33.482Z,77.40
2022-08-17T23:16:00.426Z,77.50
2022-08-17T23:18:27.362Z,77.30
2022-08-17T23:20:54.404Z,77.30
2022-08-17T23:23:23.921Z,77.10
2022-08-17T23:25:50.985Z,76.90
2022-08-17T23:28:17.743Z,76.80
2022-08-17T23:30:45.896Z,76.90
2022-08-17T23:33:29.973Z,77.00
2022-08-17T23:35:59.991Z,77.10
2022-08-17T23:38:27.526Z,77.10
2022-08-17T23:40:55.646Z,77.20
2022-08-17T23:43:25.314Z,77.10
2022-08-17T23:45:56.113Z,77.10
2022-08-17T23:48:32.573Z,77.10
2022-08-17T23:51:17.287Z,77.10
2022-08-17T23:53:55.432Z,77.10
2022-08-17T23:56:25.720Z,76.90
2022-08-17T23:58:54.875Z,76.90
